Airfield :
LOGIN :

Register | Disclaimer

   EN    FR    IT 

 










Legend :    VFR   Marginal VFR   IFR   Intensive IFR   Very Intensive IFR
Visi :
Ceiling :
>= 8 km
>= 3000ft
5 to 8 km
1000 to 3000 ft
1500m to 5 km
500 to 1000 ft
800 to 1500m
200 to 500 ft
< 800m
< 200 ft
Symbols :   Thunderstorms  Fog  Heavy snow  Heavy precipitations  Wind > 20 kt
SIGMETs :     Misc.  Thunderstorms  Icing  Turbulence  Mountain Waves  Volcanic Ashes







- Airport Elevation : 162 ft
- IATA code : BOD
- Download approach charts


LFBD - Bordeaux / Merignac

CURRENT METAR :
  • 231730Z AUTO 17004KT CAVOK 13/10 Q1013 NOSIG

EXPIRED METARs :
  • 231700Z AUTO 19003KT CAVOK 15/10 Q1014 NOSIG
  • 231630Z AUTO VRB02KT CAVOK 16/10 Q1013 NOSIG
  • 231600Z AUTO 23003KT CAVOK 19/10 Q1013 BECMG 17010KT
  • 231530Z AUTO 25005KT CAVOK 20/10 Q1013 BECMG 17010KT
  • 231500Z AUTO 24005KT 210V270 CAVOK 20/11 Q1013 NOSIG

TAF TAF LFBD
Valid from the 23 at 18:00 until the 25 at 00:00 UTC


231700Z 2318/2424 18005KT CAVOK
TEMPO 2407/2410 -RA
BECMG 2414/2416 27005KT 4000 -RA BKN040
TEMPO 2418/2424 2000 RA BKN010 TX15/2415Z TN10/2406Z
ATIS : +33 5 57 92 81 04
No reported NOTAMs for that airfield.



MET'MAP, your aeronautical weather chart ! - Copyright ORBIFLY December 2007 - Disclaimer

ORBIFLY MET'MAP TEAM :

Programming & Development : Alexandra Zaïnal
Concept & Development : Baudouin d'Aumeries
Co-Development & Prog : Marc-Olivier Méhu
Technical & hardware support : Manuel Goepfert

Contact : metmap@orbifly.com




SOURCES & CREDITS :

   NOAA